sensor_id;sensor_type;location;lat;lon;timestamp;temperature;humidity
26081;DHT22;13991;51.174;4.438;2023-02-01T00:00:20;7.30;99.90
26081;DHT22;13991;51.174;4.438;2023-02-01T00:02:46;7.30;99.90
26081;DHT22;13991;51.174;4.438;2023-02-01T00:05:13;7.40;99.90
26081;DHT22;13991;51.174;4.438;2023-02-01T00:07:38;7.50;99.90
26081;DHT22;13991;51.174;4.438;2023-02-01T00:10:05;7.40;99.90
26081;DHT22;13991;51.174;4.438;2023-02-01T00:12:32;7.50;99.90
26081;DHT22;13991;51.174;4.438;2023-02-01T00:14:57;7.50;99.90
26081;DHT22;13991;51.174;4.438;2023-02-01T00:17:23;7.50;99.90
26081;DHT22;13991;51.174;4.438;2023-02-01T00:19:49;7.50;99.90
26081;DHT22;13991;51.174;4.438;2023-02-01T00:22:14;7.50;99.90
26081;DHT22;13991;51.174;4.438;2023-02-01T00:24:40;7.40;99.90
26081;DHT22;13991;51.174;4.438;2023-02-01T00:27:06;7.40;99.90
26081;DHT22;13991;51.174;4.438;2023-02-01T00:29:32;7.40;99.90
26081;DHT22;13991;51.174;4.438;2023-02-01T00:31:57;7.30;99.90
26081;DHT22;13991;51.174;4.438;2023-02-01T00:34:23;7.20;99.90
26081;DHT22;13991;51.174;4.438;2023-02-01T00:36:49;7.30;99.90
26081;DHT22;13991;51.174;4.438;2023-02-01T00:39:15;7.30;99.90
26081;DHT22;13991;51.174;4.438;2023-02-01T00:41:40;7.20;99.90
26081;DHT22;13991;51.174;4.438;2023-02-01T00:44:06;7.10;99.90
26081;DHT22;13991;51.174;4.438;2023-02-01T00:46:32;7.10;99.90
26081;DHT22;13991;51.174;4.438;2023-02-01T00:48:58;7.10;99.90
26081;DHT22;13991;51.174;4.438;2023-02-01T00:51:26;7.10;99.90
26081;DHT22;13991;51.174;4.438;2023-02-01T00:53:53;7.10;99.90
26081;DHT22;13991;51.174;4.438;2023-02-01T00:56:19;7.00;99.90
26081;DHT22;13991;51.174;4.438;2023-02-01T00:58:45;6.90;99.90
26081;DHT22;13991;51.174;4.438;2023-02-01T01:03:44;7.00;99.90
26081;DHT22;13991;51.174;4.438;2023-02-01T01:06:15;6.90;99.90
26081;DHT22;13991;51.174;4.438;2023-02-01T01:08:42;6.90;99.90
26081;DHT22;13991;51.174;4.438;2023-02-01T01:11:14;7.00;99.90
26081;DHT22;13991;51.174;4.438;2023-02-01T01:13:41;7.00;99.90
26081;DHT22;13991;51.174;4.438;2023-02-01T01:16:09;7.10;99.90
26081;DHT22;13991;51.174;4.438;2023-02-01T01:18:35;7.10;99.90
26081;DHT22;13991;51.174;4.438;2023-02-01T01:21:01;7.00;99.90
26081;DHT22;13991;51.174;4.438;2023-02-01T01:23:27;7.00;99.90
26081;DHT22;13991;51.174;4.438;2023-02-01T01:25:53;7.00;99.90
26081;DHT22;13991;51.174;4.438;2023-02-01T01:28:19;7.00;99.90
26081;DHT22;13991;51.174;4.438;2023-02-01T01:30:45;7.00;99.90
26081;DHT22;13991;51.174;4.438;2023-02-01T01:33:11;6.90;99.90
26081;DHT22;13991;51.174;4.438;2023-02-01T01:35:36;6.90;99.90
26081;DHT22;13991;51.174;4.438;2023-02-01T01:38:02;6.80;99.90
26081;DHT22;13991;51.174;4.438;2023-02-01T01:40:29;6.90;99.90
26081;DHT22;13991;51.174;4.438;2023-02-01T01:42:55;6.80;99.90
26081;DHT22;13991;51.174;4.438;2023-02-01T01:45:28;6.80;99.90
26081;DHT22;13991;51.174;4.438;2023-02-01T01:47:57;6.90;99.90
26081;DHT22;13991;51.174;4.438;2023-02-01T01:50:28;6.90;99.90
26081;DHT22;13991;51.174;4.438;2023-02-01T01:52:56;6.90;99.90
26081;DHT22;13991;51.174;4.438;2023-02-01T01:55:24;6.90;99.90
26081;DHT22;13991;51.174;4.438;2023-02-01T01:57:56;6.90;99.90
26081;DHT22;13991;51.174;4.438;2023-02-01T02:00:23;6.90;99.90
26081;DHT22;13991;51.174;4.438;2023-02-01T02:02:55;6.80;99.90
26081;DHT22;13991;51.174;4.438;2023-02-01T02:05:22;6.80;99.90
26081;DHT22;13991;51.174;4.438;2023-02-01T02:07:50;6.90;99.90
26081;DHT22;13991;51.174;4.438;2023-02-01T02:10:18;6.90;99.90
26081;DHT22;13991;51.174;4.438;2023-02-01T02:12:45;6.90;99.90
26081;DHT22;13991;51.174;4.438;2023-02-01T02:15:14;6.90;99.90
26081;DHT22;13991;51.174;4.438;2023-02-01T02:32:08;6.70;99.90
26081;DHT22;13991;51.174;4.438;2023-02-01T02:35:06;6.60;99.90
26081;DHT22;13991;51.174;4.438;2023-02-01T02:37:54;6.70;99.90
26081;DHT22;13991;51.174;4.438;2023-02-01T02:40:45;6.70;99.90
26081;DHT22;13991;51.174;4.438;2023-02-01T02:43:20;6.70;99.90
26081;DHT22;13991;51.174;4.438;2023-02-01T02:46:22;6.70;99.90
26081;DHT22;13991;51.174;4.438;2023-02-01T02:49:30;6.60;99.90
26081;DHT22;13991;51.174;4.438;2023-02-01T02:52:02;6.50;99.90
26081;DHT22;13991;51.174;4.438;2023-02-01T02:54:50;6.40;99.90
26081;DHT22;13991;51.174;4.438;2023-02-01T03:00:13;6.40;99.90
26081;DHT22;13991;51.174;4.438;2023-02-01T03:02:58;6.40;99.90
26081;DHT22;13991;51.174;4.438;2023-02-01T03:05:48;6.50;99.90
26081;DHT22;13991;51.174;4.438;2023-02-01T03:08:27;6.50;99.90
26081;DHT22;13991;51.174;4.438;2023-02-01T03:11:09;6.50;99.90
26081;DHT22;13991;51.174;4.438;2023-02-01T03:13:47;6.50;99.90
26081;DHT22;13991;51.174;4.438;2023-02-01T03:16:24;6.50;99.90
26081;DHT22;13991;51.174;4.438;2023-02-01T03:24:11;6.60;99.90
26081;DHT22;13991;51.174;4.438;2023-02-01T03:26:42;6.60;99.90
26081;DHT22;13991;51.174;4.438;2023-02-01T03:29:13;6.60;99.90
26081;DHT22;13991;51.174;4.438;2023-02-01T03:31:39;6.70;99.90
26081;DHT22;13991;51.174;4.438;2023-02-01T03:34:05;6.60;99.90
26081;DHT22;13991;51.174;4.438;2023-02-01T03:36:43;6.60;99.90
26081;DHT22;13991;51.174;4.438;2023-02-01T03:39:21;6.50;99.90
26081;DHT22;13991;51.174;4.438;2023-02-01T03:41:53;6.40;99.90
26081;DHT22;13991;51.174;4.438;2023-02-01T03:44:32;6.40;99.90
26081;DHT22;13991;51.174;4.438;2023-02-01T03:49:35;6.40;99.90
26081;DHT22;13991;51.174;4.438;2023-02-01T03:52:02;6.30;99.90
26081;DHT22;13991;51.174;4.438;2023-02-01T03:54:29;6.40;99.90
26081;DHT22;13991;51.174;4.438;2023-02-01T03:56:59;6.40;99.90
26081;DHT22;13991;51.174;4.438;2023-02-01T03:59:26;6.30;99.90
26081;DHT22;13991;51.174;4.438;2023-02-01T04:01:51;6.40;99.90
26081;DHT22;13991;51.174;4.438;2023-02-01T04:04:18;6.40;99.90
26081;DHT22;13991;51.174;4.438;2023-02-01T04:06:51;6.40;99.90
26081;DHT22;13991;51.174;4.438;2023-02-01T04:09:17;6.40;99.90
26081;DHT22;13991;51.174;4.438;2023-02-01T04:11:43;6.40;99.90
26081;DHT22;13991;51.174;4.438;2023-02-01T04:14:08;6.40;99.90
26081;DHT22;13991;51.174;4.438;2023-02-01T04:16:34;6.40;99.90
26081;DHT22;13991;51.174;4.438;2023-02-01T04:19:01;6.40;99.90
26081;DHT22;13991;51.174;4.438;2023-02-01T04:21:27;6.40;99.90
26081;DHT22;13991;51.174;4.438;2023-02-01T04:23:53;6.40;99.90
26081;DHT22;13991;51.174;4.438;2023-02-01T04:26:19;6.40;99.90
26081;DHT22;13991;51.174;4.438;2023-02-01T04:28:45;6.40;99.90
26081;DHT22;13991;51.174;4.438;2023-02-01T04:31:14;6.40;99.90
26081;DHT22;13991;51.174;4.438;2023-02-01T04:33:40;6.50;99.90
26081;DHT22;13991;51.174;4.438;2023-02-01T04:36:06;6.40;99.90
26081;DHT22;13991;51.174;4.438;2023-02-01T04:38:31;6.40;99.90
26081;DHT22;13991;51.174;4.438;2023-02-01T04:40:58;6.40;99.90
26081;DHT22;13991;51.174;4.438;2023-02-01T04:43:24;6.40;99.90
26081;DHT22;13991;51.174;4.438;2023-02-01T04:45:50;6.40;99.90
26081;DHT22;13991;51.174;4.438;2023-02-01T04:48:16;6.40;99.90
26081;DHT22;13991;51.174;4.438;2023-02-01T04:50:44;6.30;99.90
26081;DHT22;13991;51.174;4.438;2023-02-01T04:53:13;6.30;99.90
26081;DHT22;13991;51.174;4.438;2023-02-01T04:55:39;6.30;99.90
26081;DHT22;13991;51.174;4.438;2023-02-01T04:58:05;6.30;99.90
26081;DHT22;13991;51.174;4.438;2023-02-01T05:00:31;6.40;99.90
26081;DHT22;13991;51.174;4.438;2023-02-01T05:02:56;6.30;99.90
26081;DHT22;13991;51.174;4.438;2023-02-01T05:05:22;6.30;99.90
26081;DHT22;13991;51.174;4.438;2023-02-01T05:07:48;6.30;99.90
26081;DHT22;13991;51.174;4.438;2023-02-01T05:10:13;6.40;99.90
26081;DHT22;13991;51.174;4.438;2023-02-01T05:12:39;6.30;99.90
26081;DHT22;13991;51.174;4.438;2023-02-01T05:15:23;6.30;99.90
26081;DHT22;13991;51.174;4.438;2023-02-01T05:17:49;6.20;99.90
26081;DHT22;13991;51.174;4.438;2023-02-01T05:20:14;6.20;99.90
26081;DHT22;13991;51.174;4.438;2023-02-01T05:22:41;6.30;99.90
26081;DHT22;13991;51.174;4.438;2023-02-01T05:25:07;6.30;99.90
26081;DHT22;13991;51.174;4.438;2023-02-01T05:27:33;6.40;99.90
26081;DHT22;13991;51.174;4.438;2023-02-01T05:29:59;6.40;99.90
26081;DHT22;13991;51.174;4.438;2023-02-01T05:32:24;6.30;99.90
26081;DHT22;13991;51.174;4.438;2023-02-01T05:34:50;6.30;99.90
26081;DHT22;13991;51.174;4.438;2023-02-01T05:37:16;6.30;99.90
26081;DHT22;13991;51.174;4.438;2023-02-01T05:39:41;6.30;99.90
26081;DHT22;13991;51.174;4.438;2023-02-01T05:42:07;6.30;99.90
26081;DHT22;13991;51.174;4.438;2023-02-01T05:44:34;6.20;99.90
26081;DHT22;13991;51.174;4.438;2023-02-01T05:46:59;6.30;99.90
26081;DHT22;13991;51.174;4.438;2023-02-01T05:49:25;6.20;99.90
26081;DHT22;13991;51.174;4.438;2023-02-01T05:51:51;6.30;99.90
26081;DHT22;13991;51.174;4.438;2023-02-01T05:54:16;6.30;99.90
26081;DHT22;13991;51.174;4.438;2023-02-01T05:56:42;6.30;99.90
26081;DHT22;13991;51.174;4.438;2023-02-01T05:59:09;6.10;99.90
26081;DHT22;13991;51.174;4.438;2023-02-01T06:01:34;6.10;99.90
26081;DHT22;13991;51.174;4.438;2023-02-01T06:04:00;6.10;99.90
26081;DHT22;13991;51.174;4.438;2023-02-01T06:06:26;6.20;99.90
26081;DHT22;13991;51.174;4.438;2023-02-01T06:08:51;6.30;99.90
26081;DHT22;13991;51.174;4.438;2023-02-01T06:11:17;6.40;99.90
26081;DHT22;13991;51.174;4.438;2023-02-01T06:13:43;6.30;99.90
26081;DHT22;13991;51.174;4.438;2023-02-01T06:16:08;6.30;99.90
26081;DHT22;13991;51.174;4.438;2023-02-01T06:18:34;6.30;99.90
26081;DHT22;13991;51.174;4.438;2023-02-01T06:21:01;6.20;99.90
26081;DHT22;13991;51.174;4.438;2023-02-01T06:23:31;6.20;99.90
26081;DHT22;13991;51.174;4.438;2023-02-01T06:26:02;6.20;99.90
26081;DHT22;13991;51.174;4.438;2023-02-01T06:28:29;6.20;99.90
26081;DHT22;13991;51.174;4.438;2023-02-01T06:30:55;6.30;99.90
26081;DHT22;13991;51.174;4.438;2023-02-01T06:33:24;6.30;99.90
26081;DHT22;13991;51.174;4.438;2023-02-01T06:35:57;6.20;99.90
26081;DHT22;13991;51.174;4.438;2023-02-01T06:38:24;6.10;99.90
26081;DHT22;13991;51.174;4.438;2023-02-01T06:40:55;6.10;99.90
26081;DHT22;13991;51.174;4.438;2023-02-01T06:43:22;6.20;99.90
26081;DHT22;13991;51.174;4.438;2023-02-01T06:45:49;6.20;99.90
26081;DHT22;13991;51.174;4.438;2023-02-01T06:48:15;6.20;99.90
26081;DHT22;13991;51.174;4.438;2023-02-01T06:50:40;6.20;99.90
26081;DHT22;13991;51.174;4.438;2023-02-01T06:53:06;6.10;99.90
26081;DHT22;13991;51.174;4.438;2023-02-01T06:55:32;6.10;99.90
26081;DHT22;13991;51.174;4.438;2023-02-01T06:57:57;6.20;99.90
26081;DHT22;13991;51.174;4.438;2023-02-01T07:00:23;6.10;99.90
26081;DHT22;13991;51.174;4.438;2023-02-01T07:02:50;6.20;99.90
26081;DHT22;13991;51.174;4.438;2023-02-01T07:05:16;6.30;99.90
26081;DHT22;13991;51.174;4.438;2023-02-01T07:07:42;6.10;99.90
26081;DHT22;13991;51.174;4.438;2023-02-01T07:10:08;6.10;99.90
26081;DHT22;13991;51.174;4.438;2023-02-01T07:12:34;6.10;99.90
26081;DHT22;13991;51.174;4.438;2023-02-01T07:15:01;6.20;99.90
26081;DHT22;13991;51.174;4.438;2023-02-01T07:17:28;6.20;99.90
26081;DHT22;13991;51.174;4.438;2023-02-01T07:19:57;6.20;99.90
26081;DHT22;13991;51.174;4.438;2023-02-01T07:22:27;6.20;99.90
26081;DHT22;13991;51.174;4.438;2023-02-01T07:24:53;6.20;99.90
26081;DHT22;13991;51.174;4.438;2023-02-01T07:27:18;6.30;99.90
26081;DHT22;13991;51.174;4.438;2023-02-01T07:29:45;6.20;99.90
26081;DHT22;13991;51.174;4.438;2023-02-01T07:32:11;6.20;99.90
26081;DHT22;13991;51.174;4.438;2023-02-01T07:34:36;6.30;99.90
26081;DHT22;13991;51.174;4.438;2023-02-01T07:37:02;6.20;99.90
26081;DHT22;13991;51.174;4.438;2023-02-01T07:39:28;6.20;99.90
26081;DHT22;13991;51.174;4.438;2023-02-01T07:41:54;6.20;99.90
26081;DHT22;13991;51.174;4.438;2023-02-01T07:44:20;6.20;99.90
26081;DHT22;13991;51.174;4.438;2023-02-01T07:46:49;6.20;99.90
26081;DHT22;13991;51.174;4.438;2023-02-01T07:49:15;6.30;99.90
26081;DHT22;13991;51.174;4.438;2023-02-01T07:51:40;6.40;99.90
26081;DHT22;13991;51.174;4.438;2023-02-01T07:54:06;6.40;99.90
26081;DHT22;13991;51.174;4.438;2023-02-01T07:56:32;6.50;99.90
26081;DHT22;13991;51.174;4.438;2023-02-01T07:58:57;6.50;99.90
26081;DHT22;13991;51.174;4.438;2023-02-01T08:01:26;6.50;99.90
26081;DHT22;13991;51.174;4.438;2023-02-01T08:04:00;6.60;99.90
26081;DHT22;13991;51.174;4.438;2023-02-01T08:06:28;6.60;99.90
26081;DHT22;13991;51.174;4.438;2023-02-01T08:08:55;6.60;99.90
26081;DHT22;13991;51.174;4.438;2023-02-01T08:11:22;6.50;99.90
26081;DHT22;13991;51.174;4.438;2023-02-01T08:13:48;6.40;99.90
26081;DHT22;13991;51.174;4.438;2023-02-01T08:16:15;6.40;99.90
26081;DHT22;13991;51.174;4.438;2023-02-01T08:18:42;6.60;99.90
26081;DHT22;13991;51.174;4.438;2023-02-01T08:21:14;6.50;99.90
26081;DHT22;13991;51.174;4.438;2023-02-01T08:23:41;6.60;99.90
26081;DHT22;13991;51.174;4.438;2023-02-01T08:26:10;6.70;99.90
26081;DHT22;13991;51.174;4.438;2023-02-01T08:28:37;6.80;99.90
26081;DHT22;13991;51.174;4.438;2023-02-01T08:31:08;6.80;99.90
26081;DHT22;13991;51.174;4.438;2023-02-01T08:33:35;6.80;99.90
26081;DHT22;13991;51.174;4.438;2023-02-01T08:36:03;6.90;99.90
26081;DHT22;13991;51.174;4.438;2023-02-01T08:38:29;7.00;99.90
26081;DHT22;13991;51.174;4.438;2023-02-01T08:40:55;7.00;99.90
26081;DHT22;13991;51.174;4.438;2023-02-01T08:43:21;7.00;99.90
26081;DHT22;13991;51.174;4.438;2023-02-01T08:45:46;7.20;99.90
26081;DHT22;13991;51.174;4.438;2023-02-01T08:48:12;7.20;99.90
26081;DHT22;13991;51.174;4.438;2023-02-01T08:50:38;7.20;99.90
26081;DHT22;13991;51.174;4.438;2023-02-01T08:53:04;7.20;99.90
26081;DHT22;13991;51.174;4.438;2023-02-01T08:55:29;7.20;99.90
26081;DHT22;13991;51.174;4.438;2023-02-01T08:57:56;7.40;99.90
26081;DHT22;13991;51.174;4.438;2023-02-01T09:00:21;7.40;99.90
26081;DHT22;13991;51.174;4.438;2023-02-01T09:02:47;7.40;99.90
26081;DHT22;13991;51.174;4.438;2023-02-01T09:05:13;7.50;99.90
26081;DHT22;13991;51.174;4.438;2023-02-01T09:07:42;7.50;99.90
26081;DHT22;13991;51.174;4.438;2023-02-01T09:10:08;7.60;99.90
26081;DHT22;13991;51.174;4.438;2023-02-01T09:12:35;7.50;99.90
26081;DHT22;13991;51.174;4.438;2023-02-01T09:15:01;7.50;99.90
26081;DHT22;13991;51.174;4.438;2023-02-01T09:17:28;7.60;99.90
26081;DHT22;13991;51.174;4.438;2023-02-01T09:19:53;7.60;99.90
26081;DHT22;13991;51.174;4.438;2023-02-01T09:22:20;7.60;99.90
26081;DHT22;13991;51.174;4.438;2023-02-01T09:24:46;7.70;99.90
26081;DHT22;13991;51.174;4.438;2023-02-01T09:27:11;7.80;99.90
26081;DHT22;13991;51.174;4.438;2023-02-01T09:29:37;7.80;99.90
26081;DHT22;13991;51.174;4.438;2023-02-01T09:32:03;8.00;99.90
26081;DHT22;13991;51.174;4.438;2023-02-01T09:34:29;8.00;99.90
26081;DHT22;13991;51.174;4.438;2023-02-01T09:36:54;8.00;99.90
26081;DHT22;13991;51.174;4.438;2023-02-01T09:39:20;8.10;99.90
26081;DHT22;13991;51.174;4.438;2023-02-01T09:42:06;8.00;99.90
26081;DHT22;13991;51.174;4.438;2023-02-01T09:47:17;8.20;99.90
26081;DHT22;13991;51.174;4.438;2023-02-01T09:50:04;8.30;99.90
26081;DHT22;13991;51.174;4.438;2023-02-01T09:52:55;8.50;99.90
26081;DHT22;13991;51.174;4.438;2023-02-01T09:55:50;8.40;99.90
26081;DHT22;13991;51.174;4.438;2023-02-01T09:58:22;8.50;99.90
26081;DHT22;13991;51.174;4.438;2023-02-01T10:00:55;8.50;99.90
26081;DHT22;13991;51.174;4.438;2023-02-01T10:03:26;8.50;99.90
26081;DHT22;13991;51.174;4.438;2023-02-01T10:08:33;8.50;99.90
26081;DHT22;13991;51.174;4.438;2023-02-01T10:11:17;8.40;99.90
26081;DHT22;13991;51.174;4.438;2023-02-01T10:16:24;8.60;99.90
26081;DHT22;13991;51.174;4.438;2023-02-01T10:24:37;8.90;99.90
26081;DHT22;13991;51.174;4.438;2023-02-01T10:27:15;9.10;99.90
26081;DHT22;13991;51.174;4.438;2023-02-01T10:29:44;9.20;99.90
26081;DHT22;13991;51.174;4.438;2023-02-01T10:32:17;9.30;99.90
26081;DHT22;13991;51.174;4.438;2023-02-01T10:34:46;9.20;99.90
26081;DHT22;13991;51.174;4.438;2023-02-01T10:39:48;9.40;99.90
26081;DHT22;13991;51.174;4.438;2023-02-01T10:42:17;9.60;99.90
26081;DHT22;13991;51.174;4.438;2023-02-01T10:44:45;9.60;99.90
26081;DHT22;13991;51.174;4.438;2023-02-01T10:47:14;9.80;99.90
26081;DHT22;13991;51.174;4.438;2023-02-01T10:58:01;10.20;99.90
26081;DHT22;13991;51.174;4.438;2023-02-01T11:00:27;10.30;99.90
26081;DHT22;13991;51.174;4.438;2023-02-01T11:02:54;10.30;99.90
26081;DHT22;13991;51.174;4.438;2023-02-01T11:05:21;10.10;99.90
26081;DHT22;13991;51.174;4.438;2023-02-01T11:07:51;10.10;99.90
26081;DHT22;13991;51.174;4.438;2023-02-01T11:10:36;10.10;99.90
26081;DHT22;13991;51.174;4.438;2023-02-01T11:13:03;10.10;99.90
26081;DHT22;13991;51.174;4.438;2023-02-01T11:15:32;9.90;99.90
26081;DHT22;13991;51.174;4.438;2023-02-01T11:18:14;10.00;99.90
26081;DHT22;13991;51.174;4.438;2023-02-01T11:20:41;10.10;99.90
26081;DHT22;13991;51.174;4.438;2023-02-01T11:23:18;10.10;99.90
26081;DHT22;13991;51.174;4.438;2023-02-01T11:25:57;10.10;99.90
26081;DHT22;13991;51.174;4.438;2023-02-01T11:28:31;10.00;99.90
26081;DHT22;13991;51.174;4.438;2023-02-01T11:31:08;10.10;99.90
26081;DHT22;13991;51.174;4.438;2023-02-01T11:33:37;10.30;99.90
26081;DHT22;13991;51.174;4.438;2023-02-01T11:36:16;10.30;99.90
26081;DHT22;13991;51.174;4.438;2023-02-01T11:38:51;10.30;99.90
26081;DHT22;13991;51.174;4.438;2023-02-01T11:41:26;10.20;99.90
26081;DHT22;13991;51.174;4.438;2023-02-01T11:43:53;10.20;99.90
26081;DHT22;13991;51.174;4.438;2023-02-01T11:46:24;10.10;99.90
26081;DHT22;13991;51.174;4.438;2023-02-01T11:48:54;10.20;99.90
26081;DHT22;13991;51.174;4.438;2023-02-01T12:02:02;10.00;99.90
26081;DHT22;13991;51.174;4.438;2023-02-01T12:13:14;10.30;99.90
26081;DHT22;13991;51.174;4.438;2023-02-01T12:16:02;10.40;99.90
26081;DHT22;13991;51.174;4.438;2023-02-01T12:24:09;10.50;99.90
26081;DHT22;13991;51.174;4.438;2023-02-01T12:35:10;10.40;99.90
26081;DHT22;13991;51.174;4.438;2023-02-01T12:43:39;10.30;99.90
26081;DHT22;13991;51.174;4.438;2023-02-01T12:46:42;10.20;99.90
26081;DHT22;13991;51.174;4.438;2023-02-01T12:51:54;10.30;99.90
26081;DHT22;13991;51.174;4.438;2023-02-01T12:54:42;10.30;99.90
26081;DHT22;13991;51.174;4.438;2023-02-01T12:57:16;10.30;99.90
26081;DHT22;13991;51.174;4.438;2023-02-01T12:59:49;10.30;99.90
26081;DHT22;13991;51.174;4.438;2023-02-01T13:02:22;10.40;99.90
26081;DHT22;13991;51.174;4.438;2023-02-01T13:07:41;10.40;99.90
26081;DHT22;13991;51.174;4.438;2023-02-01T13:10:33;10.50;99.90
26081;DHT22;13991;51.174;4.438;2023-02-01T13:13:11;10.50;99.90
26081;DHT22;13991;51.174;4.438;2023-02-01T13:16:07;10.50;99.90
26081;DHT22;13991;51.174;4.438;2023-02-01T13:18:39;10.40;99.90
26081;DHT22;13991;51.174;4.438;2023-02-01T13:21:27;10.40;99.90
26081;DHT22;13991;51.174;4.438;2023-02-01T13:23:54;10.40;99.90
26081;DHT22;13991;51.174;4.438;2023-02-01T13:26:20;10.30;99.90
26081;DHT22;13991;51.174;4.438;2023-02-01T13:29:03;10.20;99.90
26081;DHT22;13991;51.174;4.438;2023-02-01T13:32:20;10.10;99.90
26081;DHT22;13991;51.174;4.438;2023-02-01T13:43:22;10.20;99.90
26081;DHT22;13991;51.174;4.438;2023-02-01T13:45:52;10.20;99.90
26081;DHT22;13991;51.174;4.438;2023-02-01T13:51:00;10.20;99.90
26081;DHT22;13991;51.174;4.438;2023-02-01T13:53:32;10.20;99.90
26081;DHT22;13991;51.174;4.438;2023-02-01T13:56:07;10.20;99.90
26081;DHT22;13991;51.174;4.438;2023-02-01T13:58:40;10.20;99.90
26081;DHT22;13991;51.174;4.438;2023-02-01T14:03:58;10.40;99.90
26081;DHT22;13991;51.174;4.438;2023-02-01T14:11:43;10.30;99.90
26081;DHT22;13991;51.174;4.438;2023-02-01T14:19:29;10.20;99.90
26081;DHT22;13991;51.174;4.438;2023-02-01T14:24:55;10.10;99.90
26081;DHT22;13991;51.174;4.438;2023-02-01T14:27:25;10.10;99.90
26081;DHT22;13991;51.174;4.438;2023-02-01T14:29:57;10.10;99.90
26081;DHT22;13991;51.174;4.438;2023-02-01T14:32:30;10.00;99.90
26081;DHT22;13991;51.174;4.438;2023-02-01T14:34:59;10.00;99.90
26081;DHT22;13991;51.174;4.438;2023-02-01T14:37:29;10.00;99.90
26081;DHT22;13991;51.174;4.438;2023-02-01T14:40:14;10.00;99.90
26081;DHT22;13991;51.174;4.438;2023-02-01T14:42:48;10.00;99.90
26081;DHT22;13991;51.174;4.438;2023-02-01T14:47:54;9.80;99.90
26081;DHT22;13991;51.174;4.438;2023-02-01T14:55:41;10.00;99.90
26081;DHT22;13991;51.174;4.438;2023-02-01T15:01:22;9.90;99.90
26081;DHT22;13991;51.174;4.438;2023-02-01T15:09:31;9.80;99.90
26081;DHT22;13991;51.174;4.438;2023-02-01T15:14:33;9.70;99.90
26081;DHT22;13991;51.174;4.438;2023-02-01T15:16:59;9.90;99.90
26081;DHT22;13991;51.174;4.438;2023-02-01T15:19:27;9.90;99.90
26081;DHT22;13991;51.174;4.438;2023-02-01T15:21:57;9.90;99.90
26081;DHT22;13991;51.174;4.438;2023-02-01T15:24:26;9.90;99.90
26081;DHT22;13991;51.174;4.438;2023-02-01T15:26:53;9.90;99.90
26081;DHT22;13991;51.174;4.438;2023-02-01T15:29:21;9.90;99.90
26081;DHT22;13991;51.174;4.438;2023-02-01T15:31:52;9.80;99.90
26081;DHT22;13991;51.174;4.438;2023-02-01T15:34:19;9.70;99.90
26081;DHT22;13991;51.174;4.438;2023-02-01T15:36:46;9.80;99.90
26081;DHT22;13991;51.174;4.438;2023-02-01T15:39:20;9.70;99.90
26081;DHT22;13991;51.174;4.438;2023-02-01T15:41:59;9.80;99.90
26081;DHT22;13991;51.174;4.438;2023-02-01T15:46:58;9.80;99.90
26081;DHT22;13991;51.174;4.438;2023-02-01T15:49:38;9.70;99.90
26081;DHT22;13991;51.174;4.438;2023-02-01T15:52:22;9.60;99.90
26081;DHT22;13991;51.174;4.438;2023-02-01T15:54:52;9.70;99.90
26081;DHT22;13991;51.174;4.438;2023-02-01T15:57:34;9.80;99.90
26081;DHT22;13991;51.174;4.438;2023-02-01T16:00:06;9.70;99.90
26081;DHT22;13991;51.174;4.438;2023-02-01T16:02:34;9.70;99.90
26081;DHT22;13991;51.174;4.438;2023-02-01T16:05:02;9.60;99.90
26081;DHT22;13991;51.174;4.438;2023-02-01T16:07:30;9.70;99.90
26081;DHT22;13991;51.174;4.438;2023-02-01T16:09:59;9.70;99.90
26081;DHT22;13991;51.174;4.438;2023-02-01T16:12:33;9.70;99.90
26081;DHT22;13991;51.174;4.438;2023-02-01T16:15:02;9.70;99.90
26081;DHT22;13991;51.174;4.438;2023-02-01T16:17:28;9.80;99.90
26081;DHT22;13991;51.174;4.438;2023-02-01T16:19:53;9.70;99.90
26081;DHT22;13991;51.174;4.438;2023-02-01T16:22:20;9.80;99.90
26081;DHT22;13991;51.174;4.438;2023-02-01T16:24:46;9.80;99.90
26081;DHT22;13991;51.174;4.438;2023-02-01T16:27:12;9.90;99.90
26081;DHT22;13991;51.174;4.438;2023-02-01T16:29:38;9.80;99.90
26081;DHT22;13991;51.174;4.438;2023-02-01T16:32:04;9.90;99.90
26081;DHT22;13991;51.174;4.438;2023-02-01T16:34:30;9.80;99.90
26081;DHT22;13991;51.174;4.438;2023-02-01T16:36:56;9.80;99.90
26081;DHT22;13991;51.174;4.438;2023-02-01T16:39:23;9.80;99.90
26081;DHT22;13991;51.174;4.438;2023-02-01T16:41:49;9.90;99.90
26081;DHT22;13991;51.174;4.438;2023-02-01T16:44:15;9.80;99.90
26081;DHT22;13991;51.174;4.438;2023-02-01T16:46:45;9.70;99.90
26081;DHT22;13991;51.174;4.438;2023-02-01T16:49:23;9.70;99.90
26081;DHT22;13991;51.174;4.438;2023-02-01T16:51:51;9.70;99.90
26081;DHT22;13991;51.174;4.438;2023-02-01T16:54:20;9.80;99.90
26081;DHT22;13991;51.174;4.438;2023-02-01T16:56:47;9.80;99.90
26081;DHT22;13991;51.174;4.438;2023-02-01T16:59:13;9.80;99.90
26081;DHT22;13991;51.174;4.438;2023-02-01T17:01:40;9.80;99.90
26081;DHT22;13991;51.174;4.438;2023-02-01T17:04:11;9.90;99.90
26081;DHT22;13991;51.174;4.438;2023-02-01T17:06:38;9.80;99.90
26081;DHT22;13991;51.174;4.438;2023-02-01T17:09:04;9.80;99.90
26081;DHT22;13991;51.174;4.438;2023-02-01T17:11:30;9.80;99.90
26081;DHT22;13991;51.174;4.438;2023-02-01T17:14:16;9.90;99.90
26081;DHT22;13991;51.174;4.438;2023-02-01T17:16:43;9.90;99.90
26081;DHT22;13991;51.174;4.438;2023-02-01T17:19:14;9.90;99.90
26081;DHT22;13991;51.174;4.438;2023-02-01T17:21:45;9.80;99.90
26081;DHT22;13991;51.174;4.438;2023-02-01T17:24:16;9.80;99.90
26081;DHT22;13991;51.174;4.438;2023-02-01T17:26:43;9.80;99.90
26081;DHT22;13991;51.174;4.438;2023-02-01T17:29:10;9.80;99.90
26081;DHT22;13991;51.174;4.438;2023-02-01T17:31:38;9.90;99.90
26081;DHT22;13991;51.174;4.438;2023-02-01T17:34:05;10.10;99.90
26081;DHT22;13991;51.174;4.438;2023-02-01T17:36:30;10.00;99.90
26081;DHT22;13991;51.174;4.438;2023-02-01T17:38:56;9.90;99.90
26081;DHT22;13991;51.174;4.438;2023-02-01T17:41:22;10.00;99.90
26081;DHT22;13991;51.174;4.438;2023-02-01T17:43:49;10.00;99.90
26081;DHT22;13991;51.174;4.438;2023-02-01T17:46:16;10.00;99.90
26081;DHT22;13991;51.174;4.438;2023-02-01T17:48:50;10.00;99.90
26081;DHT22;13991;51.174;4.438;2023-02-01T17:51:24;10.00;99.90
26081;DHT22;13991;51.174;4.438;2023-02-01T17:53:51;9.90;99.90
26081;DHT22;13991;51.174;4.438;2023-02-01T17:56:22;9.90;99.90
26081;DHT22;13991;51.174;4.438;2023-02-01T17:58:49;9.90;99.90
26081;DHT22;13991;51.174;4.438;2023-02-01T18:01:21;9.90;99.90
26081;DHT22;13991;51.174;4.438;2023-02-01T18:03:47;9.90;99.90
26081;DHT22;13991;51.174;4.438;2023-02-01T18:06:16;9.70;99.90
26081;DHT22;13991;51.174;4.438;2023-02-01T18:08:42;9.80;99.90
26081;DHT22;13991;51.174;4.438;2023-02-01T18:11:15;9.90;99.90
26081;DHT22;13991;51.174;4.438;2023-02-01T18:13:41;9.90;99.90
26081;DHT22;13991;51.174;4.438;2023-02-01T18:16:19;9.90;99.90
26081;DHT22;13991;51.174;4.438;2023-02-01T18:18:46;9.90;99.90
26081;DHT22;13991;51.174;4.438;2023-02-01T18:21:13;9.80;99.90
26081;DHT22;13991;51.174;4.438;2023-02-01T18:23:38;9.80;99.90